createdAt,value
2023-03-10T00:02:15.155Z,43.76
2023-03-10T00:06:15.291Z,43.60
2023-03-10T00:10:15.479Z,43.44
2023-03-10T00:14:15.644Z,43.50
2023-03-10T00:18:15.842Z,43.37
2023-03-10T00:22:16.012Z,43.24
2023-03-10T00:26:16.193Z,43.26
2023-03-10T00:30:16.363Z,43.06
2023-03-10T00:34:16.525Z,43.03
2023-03-10T00:38:16.818Z,42.83
2023-03-10T00:42:16.868Z,42.70
2023-03-10T00:46:17.074Z,42.70
2023-03-10T00:50:17.211Z,42.62
2023-03-10T00:54:17.397Z,42.47
2023-03-10T00:58:17.581Z,42.37
2023-03-10T01:02:17.782Z,42.34
2023-03-10T01:06:17.978Z,42.21
2023-03-10T01:10:18.159Z,42.13
2023-03-10T01:14:18.380Z,42.07
2023-03-10T01:18:18.590Z,42.12
2023-03-10T01:22:18.765Z,41.94
2023-03-10T01:26:19.156Z,41.76
2023-03-10T01:30:19.256Z,41.66
2023-03-10T01:34:19.428Z,41.72
2023-03-10T01:38:19.663Z,41.47
2023-03-10T01:42:19.898Z,41.57
2023-03-10T01:46:20.158Z,41.35
2023-03-10T01:50:20.390Z,41.49
2023-03-10T01:54:20.530Z,41.33
2023-03-10T01:58:20.721Z,41.20
2023-03-10T02:02:20.965Z,41.38
2023-03-10T02:06:21.134Z,41.00
2023-03-10T02:10:21.131Z,41.25
2023-03-10T02:14:21.074Z,40.99
2023-03-10T02:18:21.073Z,40.96
2023-03-10T02:22:21.021Z,40.74
2023-03-10T02:26:20.944Z,40.85
2023-03-10T02:30:20.938Z,40.70
2023-03-10T02:34:20.897Z,40.50
2023-03-10T02:38:20.848Z,40.58
2023-03-10T02:42:20.805Z,40.57
2023-03-10T02:46:20.887Z,40.47
2023-03-10T02:50:20.869Z,40.61
2023-03-10T02:54:20.848Z,40.39
2023-03-10T02:58:20.793Z,40.24
2023-03-10T03:02:20.749Z,40.26
2023-03-10T03:06:20.732Z,40.15
2023-03-10T03:10:20.660Z,40.00
2023-03-10T03:14:20.653Z,39.97
2023-03-10T03:18:20.970Z,39.80
2023-03-10T03:22:20.527Z,39.62
2023-03-10T03:26:20.606Z,39.91
2023-03-10T03:30:22.197Z,39.84
2023-03-10T03:34:20.521Z,39.69
2023-03-10T03:38:20.505Z,39.88
2023-03-10T03:42:20.581Z,39.81
2023-03-10T03:46:20.542Z,39.76
2023-03-10T03:50:20.515Z,39.48
2023-03-10T03:54:20.447Z,39.75
2023-03-10T03:58:20.405Z,39.29
2023-03-10T04:02:20.467Z,39.19
2023-03-10T04:06:20.319Z,39.07
2023-03-10T04:10:20.308Z,38.99
2023-03-10T04:14:20.277Z,38.67
2023-03-10T04:18:20.196Z,38.88
2023-03-10T04:22:20.308Z,39.09
2023-03-10T04:26:20.255Z,39.03
2023-03-10T04:30:20.205Z,39.00
2023-03-10T04:34:20.172Z,38.66
2023-03-10T04:38:20.185Z,38.63
2023-03-10T04:42:20.114Z,38.96
2023-03-10T04:46:20.125Z,38.53
2023-03-10T04:50:20.056Z,38.41
2023-03-10T04:54:20.006Z,38.36
2023-03-10T04:58:19.953Z,38.43
2023-03-10T05:02:19.937Z,38.52
2023-03-10T05:06:20.044Z,38.31
2023-03-10T05:10:20.221Z,38.46
2023-03-10T05:14:20.392Z,38.25
2023-03-10T05:18:20.537Z,38.20
2023-03-10T05:22:20.694Z,38.20
2023-03-10T05:26:21.452Z,38.29
2023-03-10T05:30:21.065Z,38.32
2023-03-10T05:34:21.249Z,38.18
2023-03-10T05:38:21.370Z,38.27
2023-03-10T05:42:21.621Z,37.97
2023-03-10T05:46:21.795Z,38.07
2023-03-10T05:50:21.857Z,37.86
2023-03-10T05:54:21.926Z,40.13
2023-03-10T05:58:21.944Z,40.55
2023-03-10T06:02:22.020Z,41.60
2023-03-10T06:06:22.116Z,42.59
2023-03-10T06:10:22.185Z,43.32
2023-03-10T06:14:22.299Z,44.06
2023-03-10T06:18:22.522Z,44.97
2023-03-10T06:22:22.681Z,45.90
2023-03-10T06:26:22.847Z,46.59
2023-03-10T06:30:22.998Z,47.22
2023-03-10T06:34:23.201Z,48.11
2023-03-10T06:38:23.507Z,49.97
2023-03-10T06:42:23.579Z,50.65
2023-03-10T06:46:24.099Z,50.11
2023-03-10T06:50:24.032Z,50.62
2023-03-10T06:54:23.505Z,49.82
2023-03-10T06:58:23.487Z,50.47
2023-03-10T07:02:23.483Z,51.32
2023-03-10T07:06:23.393Z,51.37
2023-03-10T07:10:23.342Z,52.03
2023-03-10T07:14:23.286Z,52.74
2023-03-10T07:18:23.528Z,52.97
2023-03-10T07:22:23.209Z,53.31
2023-03-10T07:26:23.174Z,53.75
2023-03-10T07:30:23.166Z,54.63
2023-03-10T07:34:23.127Z,54.76
2023-03-10T07:38:24.033Z,55.32
2023-03-10T07:42:23.029Z,55.17
2023-03-10T07:46:23.045Z,55.56
2023-03-10T07:50:23.559Z,55.23
2023-03-10T07:54:23.033Z,52.94
2023-03-10T07:58:23.057Z,52.43
2023-03-10T08:02:22.996Z,52.33
2023-03-10T08:06:23.006Z,51.95
2023-03-10T08:10:23.035Z,51.21
2023-03-10T08:14:23.040Z,50.87
2023-03-10T08:18:23.030Z,49.94
2023-03-10T08:22:23.105Z,49.56
2023-03-10T08:26:23.087Z,49.41
2023-03-10T08:30:23.084Z,49.39
2023-03-10T08:34:23.078Z,48.60
2023-03-10T08:38:23.531Z,47.42
2023-03-10T08:42:23.183Z,44.61
2023-03-10T08:46:23.570Z,45.40
2023-03-10T08:50:23.537Z,47.11
2023-03-10T08:54:23.548Z,48.76
2023-03-10T08:58:23.615Z,48.97
2023-03-10T09:02:23.768Z,49.63
2023-03-10T09:06:23.706Z,49.98
2023-03-10T09:10:23.718Z,50.48
2023-03-10T09:14:24.073Z,51.34
2023-03-10T09:18:23.703Z,51.56
2023-03-10T09:22:23.696Z,52.06
2023-03-10T09:26:24.159Z,52.66
2023-03-10T09:30:23.777Z,53.40
2023-03-10T09:34:23.703Z,53.44
2023-03-10T09:38:24.058Z,53.57
2023-03-10T09:42:36.466Z,53.64
2023-03-10T09:46:24.620Z,53.75
2023-03-10T09:50:24.198Z,53.78
2023-03-10T09:54:24.063Z,53.92
2023-03-10T09:58:23.575Z,54.03
2023-03-10T10:02:23.493Z,53.99
2023-03-10T10:06:24.702Z,53.96
2023-03-10T10:10:24.084Z,54.05
2023-03-10T10:14:29.872Z,54.20
2023-03-10T10:18:25.804Z,54.25
2023-03-10T10:22:23.603Z,54.33
2023-03-10T10:26:24.092Z,54.35
2023-03-10T10:30:25.457Z,54.40
2023-03-10T10:34:23.526Z,54.46
2023-03-10T10:38:23.465Z,54.43
2023-03-10T10:42:23.585Z,54.45
2023-03-10T10:46:23.708Z,54.59
2023-03-10T10:50:23.406Z,54.55
2023-03-10T10:54:23.614Z,54.57
2023-03-10T10:58:23.298Z,52.18
2023-03-10T11:02:23.679Z,51.07
2023-03-10T11:06:23.232Z,50.27
2023-03-10T11:10:23.173Z,50.05
2023-03-10T11:14:23.589Z,49.88
2023-03-10T11:18:23.115Z,50.03
2023-03-10T11:22:23.064Z,49.80
2023-03-10T11:26:23.070Z,49.46
2023-03-10T11:30:24.911Z,49.60
2023-03-10T11:34:22.960Z,49.62
2023-03-10T11:38:22.951Z,49.66
2023-03-10T11:42:25.205Z,50.39
2023-03-10T11:46:23.235Z,50.45
2023-03-10T11:50:23.130Z,50.78
2023-03-10T11:54:24.428Z,50.86
2023-03-10T11:58:22.753Z,51.08
2023-03-10T12:02:22.720Z,51.36
2023-03-10T12:06:25.549Z,51.57
2023-03-10T12:10:22.653Z,51.48
2023-03-10T12:14:22.591Z,51.01
2023-03-10T12:18:23.965Z,50.45
2023-03-10T12:22:22.513Z,50.01
2023-03-10T12:26:22.613Z,50.02
2023-03-10T12:30:23.902Z,50.41
2023-03-10T12:34:22.625Z,50.68
2023-03-10T12:38:22.666Z,50.86
2023-03-10T12:42:23.720Z,51.19
2023-03-10T12:46:22.398Z,51.32
2023-03-10T12:50:22.637Z,51.42
2023-03-10T12:54:22.309Z,51.64
2023-03-10T12:58:22.276Z,51.99
2023-03-10T13:02:22.236Z,52.15
2023-03-10T13:06:22.283Z,52.17
2023-03-10T13:10:22.193Z,52.49
2023-03-10T13:14:22.151Z,52.81
2023-03-10T13:18:22.113Z,52.93
2023-03-10T13:22:22.051Z,53.04
2023-03-10T13:26:22.040Z,53.24
2023-03-10T13:30:22.007Z,53.50
2023-03-10T13:34:22.648Z,53.83
2023-03-10T13:38:22.055Z,53.89
2023-03-10T13:42:28.302Z,54.20
2023-03-10T13:46:22.901Z,54.47
2023-03-10T13:50:21.825Z,54.76
2023-03-10T13:54:21.749Z,54.76
2023-03-10T13:58:21.767Z,55.15
2023-03-10T14:02:21.704Z,55.55
2023-03-10T14:06:21.671Z,56.04
2023-03-10T14:10:21.651Z,56.15
2023-03-10T14:14:21.603Z,56.06
2023-03-10T14:18:21.537Z,56.16
2023-03-10T14:22:21.496Z,56.25
2023-03-10T14:26:21.546Z,56.53
2023-03-10T14:30:21.546Z,56.51
2023-03-10T14:34:21.557Z,56.46
2023-03-10T14:38:21.564Z,56.70
2023-03-10T14:42:21.595Z,57.02
2023-03-10T14:46:21.902Z,57.24
2023-03-10T14:50:21.651Z,57.18
2023-03-10T14:54:21.690Z,57.29
2023-03-10T14:58:21.706Z,57.52
2023-03-10T15:02:21.738Z,57.76
2023-03-10T15:06:21.729Z,57.67
2023-03-10T15:10:21.828Z,57.54
2023-03-10T15:14:21.835Z,57.68
2023-03-10T15:18:21.860Z,57.81
2023-03-10T15:22:21.918Z,58.03
2023-03-10T15:26:21.915Z,58.00
2023-03-10T15:30:21.946Z,58.03
2023-03-10T15:34:22.002Z,58.17
2023-03-10T15:38:22.020Z,58.40
2023-03-10T15:42:22.062Z,58.30
2023-03-10T15:46:22.103Z,58.12
2023-03-10T15:50:22.100Z,58.15
2023-03-10T15:54:22.186Z,58.18
2023-03-10T15:58:22.190Z,58.07
2023-03-10T16:02:22.247Z,57.72
2023-03-10T16:06:22.286Z,57.31
2023-03-10T16:10:22.394Z,56.89
2023-03-10T16:14:22.390Z,57.00
2023-03-10T16:18:22.540Z,57.22
2023-03-10T16:22:22.595Z,57.23
2023-03-10T16:26:22.683Z,57.53
2023-03-10T16:30:22.799Z,57.70
2023-03-10T16:34:22.804Z,57.91
2023-03-10T16:38:22.876Z,57.88
2023-03-10T16:42:22.943Z,57.74
2023-03-10T16:46:23.143Z,57.79
2023-03-10T16:50:23.072Z,58.03
2023-03-10T16:54:23.568Z,58.28
2023-03-10T16:58:23.220Z,58.09
2023-03-10T17:02:23.331Z,57.62
2023-03-10T17:06:23.420Z,57.40
2023-03-10T17:10:23.536Z,57.54
2023-03-10T17:14:23.608Z,57.73
2023-03-10T17:18:23.704Z,57.79
2023-03-10T17:22:23.770Z,57.94
2023-03-10T17:26:23.880Z,58.14
2023-03-10T17:30:23.891Z,58.29
2023-03-10T17:34:23.946Z,58.44
2023-03-10T17:38:24.048Z,58.59
2023-03-10T17:42:24.095Z,58.92
2023-03-10T17:46:24.207Z,59.04
2023-03-10T17:50:24.185Z,58.99
2023-03-10T17:54:24.277Z,58.76
2023-03-10T17:58:24.385Z,58.84
2023-03-10T18:02:24.624Z,59.11
2023-03-10T18:06:24.561Z,58.94
2023-03-10T18:10:24.643Z,58.87
2023-03-10T18:14:24.724Z,58.76
2023-03-10T18:18:24.799Z,58.54
2023-03-10T18:22:24.867Z,58.44
2023-03-10T18:26:24.965Z,58.23
2023-03-10T18:30:25.095Z,57.96
2023-03-10T18:34:25.133Z,57.77
2023-03-10T18:38:25.246Z,57.61
2023-03-10T18:42:25.339Z,57.38
2023-03-10T18:46:25.449Z,57.16
2023-03-10T18:50:25.522Z,56.95
2023-03-10T18:54:25.601Z,56.79
2023-03-10T18:58:25.721Z,56.62
2023-03-10T19:02:25.815Z,56.42
2023-03-10T19:06:25.903Z,56.26
2023-03-10T19:10:26.282Z,56.06
2023-03-10T19:14:26.142Z,55.84
2023-03-10T19:18:26.215Z,55.66
2023-03-10T19:22:26.362Z,55.46
2023-03-10T19:26:26.461Z,55.22
2023-03-10T19:30:26.582Z,55.11
2023-03-10T19:34:26.678Z,54.92
2023-03-10T19:38:26.827Z,54.69
2023-03-10T19:42:27.012Z,54.46
2023-03-10T19:46:27.167Z,54.27
2023-03-10T19:50:27.244Z,54.03
2023-03-10T19:54:27.352Z,53.90
2023-03-10T19:58:27.519Z,53.70
2023-03-10T20:02:27.688Z,53.60
2023-03-10T20:06:27.812Z,53.47
2023-03-10T20:10:27.921Z,53.35
2023-03-10T20:14:28.068Z,53.23
2023-03-10T20:18:28.210Z,53.07
2023-03-10T20:22:28.333Z,52.95
2023-03-10T20:26:28.453Z,52.92
2023-03-10T20:30:28.603Z,52.86
2023-03-10T20:34:28.750Z,52.80
2023-03-10T20:38:28.845Z,52.64
2023-03-10T20:42:29.000Z,52.48
2023-03-10T20:46:29.131Z,52.32
2023-03-10T20:50:29.299Z,52.22
2023-03-10T20:54:29.444Z,52.14
2023-03-10T20:58:29.546Z,52.11
2023-03-10T21:02:29.716Z,52.05
2023-03-10T21:06:29.836Z,51.90
2023-03-10T21:10:29.938Z,51.67
2023-03-10T21:14:30.135Z,51.59
2023-03-10T21:18:30.216Z,51.55
2023-03-10T21:22:30.388Z,51.55
2023-03-10T21:26:30.539Z,51.45
2023-03-10T21:30:30.755Z,51.38
2023-03-10T21:34:30.850Z,51.15
2023-03-10T21:38:31.037Z,51.05
2023-03-10T21:42:31.197Z,50.91
2023-03-10T21:46:31.404Z,50.81
2023-03-10T21:50:31.490Z,50.84
2023-03-10T21:54:31.718Z,50.74
2023-03-10T21:58:31.861Z,50.28
2023-03-10T22:02:32.010Z,50.43
2023-03-10T22:06:32.222Z,50.33
2023-03-10T22:10:32.411Z,50.04
2023-03-10T22:14:32.610Z,49.88
2023-03-10T22:18:32.833Z,49.82
2023-03-10T22:22:32.997Z,49.74
2023-03-10T22:26:33.227Z,49.45
2023-03-10T22:30:33.423Z,49.51
2023-03-10T22:34:33.635Z,49.27
2023-03-10T22:38:33.817Z,49.11
2023-03-10T22:42:34.073Z,48.86
2023-03-10T22:46:34.335Z,48.96
2023-03-10T22:50:34.511Z,48.67
2023-03-10T22:54:34.443Z,48.63
2023-03-10T22:58:34.424Z,48.44
2023-03-10T23:02:34.425Z,48.10
2023-03-10T23:06:34.354Z,47.88
2023-03-10T23:10:34.304Z,47.62
2023-03-10T23:14:34.286Z,47.65
2023-03-10T23:18:34.214Z,47.77
2023-03-10T23:22:34.228Z,47.54
2023-03-10T23:26:34.168Z,47.32
2023-03-10T23:30:34.147Z,47.23
2023-03-10T23:34:34.310Z,47.21
2023-03-10T23:38:34.444Z,47.12
2023-03-10T23:42:34.453Z,47.06
2023-03-10T23:46:34.410Z,47.05
2023-03-10T23:50:34.367Z,46.62
2023-03-10T23:54:34.324Z,46.44
2023-03-10T23:58:34.290Z,46.64
